sensor_id;sensor_type;location;lat;lon;timestamp;P1;durP1;ratioP1;P2;durP2;ratioP2
29934;SDS011;19905;53.370;-6.314;2022-10-16T00:01:45;5.18;;;1.33;;
29934;SDS011;19905;53.370;-6.314;2022-10-16T00:04:14;4.47;;;1.40;;
29934;SDS011;19905;53.370;-6.314;2022-10-16T00:06:45;6.00;;;1.70;;
29934;SDS011;19905;53.370;-6.314;2022-10-16T00:09:14;5.72;;;1.10;;
29934;SDS011;19905;53.370;-6.314;2022-10-16T00:11:44;3.55;;;1.58;;
29934;SDS011;19905;53.370;-6.314;2022-10-16T00:14:15;4.03;;;1.50;;
29934;SDS011;19905;53.370;-6.314;2022-10-16T00:16:44;5.80;;;1.30;;
29934;SDS011;19905;53.370;-6.314;2022-10-16T00:19:13;3.40;;;1.30;;
29934;SDS011;19905;53.370;-6.314;2022-10-16T00:21:42;6.70;;;1.35;;
29934;SDS011;19905;53.370;-6.314;2022-10-16T00:24:13;7.18;;;1.30;;
29934;SDS011;19905;53.370;-6.314;2022-10-16T00:26:43;6.13;;;1.30;;
29934;SDS011;19905;53.370;-6.314;2022-10-16T00:29:13;6.32;;;1.23;;
29934;SDS011;19905;53.370;-6.314;2022-10-16T00:31:41;5.70;;;1.25;;
29934;SDS011;19905;53.370;-6.314;2022-10-16T00:34:10;4.20;;;1.35;;
29934;SDS011;19905;53.370;-6.314;2022-10-16T00:36:39;7.53;;;1.33;;
29934;SDS011;19905;53.370;-6.314;2022-10-16T00:39:08;4.25;;;1.10;;
29934;SDS011;19905;53.370;-6.314;2022-10-16T00:41:39;6.47;;;1.30;;
29934;SDS011;19905;53.370;-6.314;2022-10-16T00:47:13;5.90;;;1.42;;
29934;SDS011;19905;53.370;-6.314;2022-10-16T00:49:48;6.80;;;1.00;;
29934;SDS011;19905;53.370;-6.314;2022-10-16T00:52:21;6.50;;;1.20;;
29934;SDS011;19905;53.370;-6.314;2022-10-16T00:54:50;7.28;;;1.45;;
29934;SDS011;19905;53.370;-6.314;2022-10-16T00:57:24;3.28;;;1.20;;
29934;SDS011;19905;53.370;-6.314;2022-10-16T00:59:55;4.97;;;1.08;;
29934;SDS011;19905;53.370;-6.314;2022-10-16T01:02:27;8.20;;;1.20;;
29934;SDS011;19905;53.370;-6.314;2022-10-16T01:04:56;6.80;;;1.40;;
29934;SDS011;19905;53.370;-6.314;2022-10-16T01:07:30;3.63;;;1.10;;
29934;SDS011;19905;53.370;-6.314;2022-10-16T01:10:11;4.68;;;1.30;;
29934;SDS011;19905;53.370;-6.314;2022-10-16T01:12:50;5.93;;;1.35;;
29934;SDS011;19905;53.370;-6.314;2022-10-16T01:15:24;5.47;;;1.30;;
29934;SDS011;19905;53.370;-6.314;2022-10-16T01:18:00;5.25;;;1.30;;
29934;SDS011;19905;53.370;-6.314;2022-10-16T01:20:34;9.18;;;1.38;;
29934;SDS011;19905;53.370;-6.314;2022-10-16T01:23:19;7.85;;;1.23;;
29934;SDS011;19905;53.370;-6.314;2022-10-16T01:26:02;9.38;;;1.48;;
29934;SDS011;19905;53.370;-6.314;2022-10-16T01:28:54;4.05;;;0.98;;
29934;SDS011;19905;53.370;-6.314;2022-10-16T01:31:27;5.78;;;1.08;;
29934;SDS011;19905;53.370;-6.314;2022-10-16T01:34:00;6.28;;;1.20;;
29934;SDS011;19905;53.370;-6.314;2022-10-16T01:36:35;7.38;;;1.35;;
29934;SDS011;19905;53.370;-6.314;2022-10-16T01:39:09;5.60;;;1.08;;
29934;SDS011;19905;53.370;-6.314;2022-10-16T01:41:43;4.30;;;1.15;;
29934;SDS011;19905;53.370;-6.314;2022-10-16T01:44:21;4.25;;;1.13;;
29934;SDS011;19905;53.370;-6.314;2022-10-16T01:46:54;7.90;;;1.02;;
29934;SDS011;19905;53.370;-6.314;2022-10-16T01:49:25;7.22;;;1.40;;
29934;SDS011;19905;53.370;-6.314;2022-10-16T01:51:58;4.82;;;1.10;;
29934;SDS011;19905;53.370;-6.314;2022-10-16T01:57:11;5.20;;;0.93;;
29934;SDS011;19905;53.370;-6.314;2022-10-16T01:59:45;5.43;;;1.20;;
29934;SDS011;19905;53.370;-6.314;2022-10-16T02:02:20;6.05;;;1.10;;
29934;SDS011;19905;53.370;-6.314;2022-10-16T02:04:53;5.20;;;1.20;;
29934;SDS011;19905;53.370;-6.314;2022-10-16T02:07:26;6.38;;;1.23;;
29934;SDS011;19905;53.370;-6.314;2022-10-16T02:09:57;7.93;;;1.50;;
29934;SDS011;19905;53.370;-6.314;2022-10-16T02:12:26;8.05;;;1.35;;
29934;SDS011;19905;53.370;-6.314;2022-10-16T02:14:59;7.15;;;1.40;;
29934;SDS011;19905;53.370;-6.314;2022-10-16T02:17:29;5.70;;;1.30;;
29934;SDS011;19905;53.370;-6.314;2022-10-16T02:19:57;7.75;;;1.38;;
29934;SDS011;19905;53.370;-6.314;2022-10-16T02:22:27;5.50;;;1.30;;
29934;SDS011;19905;53.370;-6.314;2022-10-16T02:24:58;4.20;;;1.17;;
29934;SDS011;19905;53.370;-6.314;2022-10-16T02:27:33;5.97;;;1.30;;
29934;SDS011;19905;53.370;-6.314;2022-10-16T02:30:11;4.07;;;1.17;;
29934;SDS011;19905;53.370;-6.314;2022-10-16T02:32:45;5.97;;;1.35;;
29934;SDS011;19905;53.370;-6.314;2022-10-16T02:35:19;9.35;;;1.50;;
29934;SDS011;19905;53.370;-6.314;2022-10-16T02:37:51;5.40;;;1.38;;
29934;SDS011;19905;53.370;-6.314;2022-10-16T02:40:20;4.18;;;1.10;;
29934;SDS011;19905;53.370;-6.314;2022-10-16T02:42:52;6.45;;;1.25;;
29934;SDS011;19905;53.370;-6.314;2022-10-16T02:45:24;2.92;;;1.20;;
29934;SDS011;19905;53.370;-6.314;2022-10-16T02:47:53;5.38;;;1.38;;
29934;SDS011;19905;53.370;-6.314;2022-10-16T02:50:22;6.68;;;1.15;;
29934;SDS011;19905;53.370;-6.314;2022-10-16T02:52:51;6.93;;;1.33;;
29934;SDS011;19905;53.370;-6.314;2022-10-16T02:55:22;5.38;;;1.40;;
29934;SDS011;19905;53.370;-6.314;2022-10-16T02:57:51;4.55;;;1.40;;
29934;SDS011;19905;53.370;-6.314;2022-10-16T03:00:20;5.60;;;1.20;;
29934;SDS011;19905;53.370;-6.314;2022-10-16T03:02:51;4.88;;;1.33;;
29934;SDS011;19905;53.370;-6.314;2022-10-16T03:05:20;7.72;;;1.50;;
29934;SDS011;19905;53.370;-6.314;2022-10-16T03:07:51;6.07;;;1.35;;
29934;SDS011;19905;53.370;-6.314;2022-10-16T03:10:20;4.82;;;1.13;;
29934;SDS011;19905;53.370;-6.314;2022-10-16T03:12:56;5.90;;;1.20;;
29934;SDS011;19905;53.370;-6.314;2022-10-16T03:15:26;5.50;;;1.10;;
29934;SDS011;19905;53.370;-6.314;2022-10-16T03:17:58;6.25;;;1.20;;
29934;SDS011;19905;53.370;-6.314;2022-10-16T03:20:27;4.57;;;1.15;;
29934;SDS011;19905;53.370;-6.314;2022-10-16T03:22:57;7.25;;;1.20;;
29934;SDS011;19905;53.370;-6.314;2022-10-16T03:25:28;6.40;;;1.08;;
29934;SDS011;19905;53.370;-6.314;2022-10-16T03:27:57;3.88;;;0.82;;
29934;SDS011;19905;53.370;-6.314;2022-10-16T03:30:27;5.57;;;1.60;;
29934;SDS011;19905;53.370;-6.314;2022-10-16T03:32:56;4.35;;;1.02;;
29934;SDS011;19905;53.370;-6.314;2022-10-16T03:35:26;2.90;;;1.02;;
29934;SDS011;19905;53.370;-6.314;2022-10-16T03:37:57;4.03;;;1.00;;
29934;SDS011;19905;53.370;-6.314;2022-10-16T03:40:35;2.28;;;0.90;;
29934;SDS011;19905;53.370;-6.314;2022-10-16T03:43:34;3.55;;;1.00;;
29934;SDS011;19905;53.370;-6.314;2022-10-16T03:46:08;3.45;;;1.00;;
29934;SDS011;19905;53.370;-6.314;2022-10-16T03:48:38;2.13;;;0.95;;
29934;SDS011;19905;53.370;-6.314;2022-10-16T03:51:12;6.05;;;1.10;;
29934;SDS011;19905;53.370;-6.314;2022-10-16T03:54:02;5.25;;;1.00;;
29934;SDS011;19905;53.370;-6.314;2022-10-16T03:56:40;2.13;;;1.02;;
29934;SDS011;19905;53.370;-6.314;2022-10-16T03:59:09;5.28;;;0.90;;
29934;SDS011;19905;53.370;-6.314;2022-10-16T04:02:00;11.32;;;1.25;;
29934;SDS011;19905;53.370;-6.314;2022-10-16T04:04:35;3.13;;;0.80;;
29934;SDS011;19905;53.370;-6.314;2022-10-16T04:07:06;7.57;;;1.17;;
29934;SDS011;19905;53.370;-6.314;2022-10-16T04:09:39;4.25;;;1.23;;
29934;SDS011;19905;53.370;-6.314;2022-10-16T04:12:10;5.32;;;1.13;;
29934;SDS011;19905;53.370;-6.314;2022-10-16T04:14:42;8.35;;;1.33;;
29934;SDS011;19905;53.370;-6.314;2022-10-16T04:17:16;4.80;;;1.00;;
29934;SDS011;19905;53.370;-6.314;2022-10-16T04:20:01;3.67;;;0.93;;
29934;SDS011;19905;53.370;-6.314;2022-10-16T04:22:34;5.43;;;1.30;;
29934;SDS011;19905;53.370;-6.314;2022-10-16T04:25:12;7.75;;;1.10;;
29934;SDS011;19905;53.370;-6.314;2022-10-16T04:27:41;6.53;;;0.90;;
29934;SDS011;19905;53.370;-6.314;2022-10-16T04:30:15;4.50;;;1.02;;
29934;SDS011;19905;53.370;-6.314;2022-10-16T04:32:56;3.40;;;0.90;;
29934;SDS011;19905;53.370;-6.314;2022-10-16T04:35:36;6.43;;;1.00;;
29934;SDS011;19905;53.370;-6.314;2022-10-16T04:38:04;6.32;;;1.10;;
29934;SDS011;19905;53.370;-6.314;2022-10-16T04:40:33;5.13;;;0.98;;
29934;SDS011;19905;53.370;-6.314;2022-10-16T04:43:04;4.90;;;1.08;;
29934;SDS011;19905;53.370;-6.314;2022-10-16T04:45:53;5.43;;;1.05;;
29934;SDS011;19905;53.370;-6.314;2022-10-16T04:48:26;3.92;;;1.05;;
29934;SDS011;19905;53.370;-6.314;2022-10-16T04:50:56;6.00;;;0.90;;
29934;SDS011;19905;53.370;-6.314;2022-10-16T04:53:25;6.88;;;1.42;;
29934;SDS011;19905;53.370;-6.314;2022-10-16T04:55:53;5.88;;;1.15;;
29934;SDS011;19905;53.370;-6.314;2022-10-16T04:58:23;4.38;;;1.00;;
29934;SDS011;19905;53.370;-6.314;2022-10-16T05:00:52;6.88;;;1.00;;
29934;SDS011;19905;53.370;-6.314;2022-10-16T05:03:27;2.33;;;0.85;;
29934;SDS011;19905;53.370;-6.314;2022-10-16T05:06:04;5.78;;;1.10;;
29934;SDS011;19905;53.370;-6.314;2022-10-16T05:08:34;4.57;;;1.38;;
29934;SDS011;19905;53.370;-6.314;2022-10-16T05:11:03;5.88;;;1.00;;
29934;SDS011;19905;53.370;-6.314;2022-10-16T05:13:32;8.85;;;1.10;;
29934;SDS011;19905;53.370;-6.314;2022-10-16T05:16:01;5.60;;;0.88;;
29934;SDS011;19905;53.370;-6.314;2022-10-16T05:18:31;4.85;;;0.82;;
29934;SDS011;19905;53.370;-6.314;2022-10-16T05:21:00;5.03;;;0.90;;
29934;SDS011;19905;53.370;-6.314;2022-10-16T05:23:30;5.90;;;0.77;;
29934;SDS011;19905;53.370;-6.314;2022-10-16T05:25:59;10.70;;;1.13;;
29934;SDS011;19905;53.370;-6.314;2022-10-16T05:28:28;6.05;;;1.10;;
29934;SDS011;19905;53.370;-6.314;2022-10-16T05:31:04;6.47;;;1.10;;
29934;SDS011;19905;53.370;-6.314;2022-10-16T05:33:33;7.93;;;1.45;;
29934;SDS011;19905;53.370;-6.314;2022-10-16T05:36:04;5.85;;;0.93;;
29934;SDS011;19905;53.370;-6.314;2022-10-16T05:38:38;8.50;;;1.10;;
29934;SDS011;19905;53.370;-6.314;2022-10-16T05:41:06;4.05;;;1.17;;
29934;SDS011;19905;53.370;-6.314;2022-10-16T05:43:41;5.25;;;0.90;;
29934;SDS011;19905;53.370;-6.314;2022-10-16T05:46:09;6.63;;;1.13;;
29934;SDS011;19905;53.370;-6.314;2022-10-16T05:48:39;4.03;;;1.00;;
29934;SDS011;19905;53.370;-6.314;2022-10-16T05:51:09;5.30;;;1.00;;
29934;SDS011;19905;53.370;-6.314;2022-10-16T05:53:43;5.38;;;1.02;;
29934;SDS011;19905;53.370;-6.314;2022-10-16T05:56:11;6.55;;;0.98;;
29934;SDS011;19905;53.370;-6.314;2022-10-16T05:58:41;4.78;;;1.02;;
29934;SDS011;19905;53.370;-6.314;2022-10-16T06:01:13;3.55;;;1.00;;
29934;SDS011;19905;53.370;-6.314;2022-10-16T06:03:43;7.10;;;1.42;;
29934;SDS011;19905;53.370;-6.314;2022-10-16T06:06:13;7.75;;;1.30;;
29934;SDS011;19905;53.370;-6.314;2022-10-16T06:08:47;3.22;;;1.08;;
29934;SDS011;19905;53.370;-6.314;2022-10-16T06:11:18;6.50;;;1.48;;
29934;SDS011;19905;53.370;-6.314;2022-10-16T06:13:49;5.47;;;1.05;;
29934;SDS011;19905;53.370;-6.314;2022-10-16T06:16:18;3.50;;;0.88;;
29934;SDS011;19905;53.370;-6.314;2022-10-16T06:21:20;11.88;;;1.15;;
29934;SDS011;19905;53.370;-6.314;2022-10-16T06:23:54;5.05;;;1.20;;
29934;SDS011;19905;53.370;-6.314;2022-10-16T06:26:25;6.28;;;1.20;;
29934;SDS011;19905;53.370;-6.314;2022-10-16T06:28:56;3.08;;;1.10;;
29934;SDS011;19905;53.370;-6.314;2022-10-16T06:31:26;6.65;;;1.45;;
29934;SDS011;19905;53.370;-6.314;2022-10-16T06:36:31;8.88;;;1.30;;
29934;SDS011;19905;53.370;-6.314;2022-10-16T06:39:02;10.07;;;1.27;;
29934;SDS011;19905;53.370;-6.314;2022-10-16T06:41:31;4.97;;;1.38;;
29934;SDS011;19905;53.370;-6.314;2022-10-16T06:44:00;4.25;;;1.10;;
29934;SDS011;19905;53.370;-6.314;2022-10-16T06:46:31;7.85;;;1.20;;
29934;SDS011;19905;53.370;-6.314;2022-10-16T06:49:00;4.75;;;1.15;;
29934;SDS011;19905;53.370;-6.314;2022-10-16T06:54:09;10.60;;;1.70;;
29934;SDS011;19905;53.370;-6.314;2022-10-16T06:56:39;11.52;;;1.20;;
29934;SDS011;19905;53.370;-6.314;2022-10-16T06:59:16;9.23;;;1.30;;
29934;SDS011;19905;53.370;-6.314;2022-10-16T07:04:19;7.40;;;1.10;;
29934;SDS011;19905;53.370;-6.314;2022-10-16T07:06:48;5.50;;;1.25;;
29934;SDS011;19905;53.370;-6.314;2022-10-16T07:09:19;8.88;;;1.70;;
29934;SDS011;19905;53.370;-6.314;2022-10-16T07:11:49;6.78;;;1.25;;
29934;SDS011;19905;53.370;-6.314;2022-10-16T07:14:26;7.82;;;1.15;;
29934;SDS011;19905;53.370;-6.314;2022-10-16T07:19:34;6.63;;;1.23;;
29934;SDS011;19905;53.370;-6.314;2022-10-16T07:22:04;11.55;;;1.80;;
29934;SDS011;19905;53.370;-6.314;2022-10-16T07:24:36;14.98;;;1.63;;
29934;SDS011;19905;53.370;-6.314;2022-10-16T07:27:05;5.10;;;1.30;;
29934;SDS011;19905;53.370;-6.314;2022-10-16T07:29:35;6.20;;;1.30;;
29934;SDS011;19905;53.370;-6.314;2022-10-16T07:34:37;7.32;;;1.23;;
29934;SDS011;19905;53.370;-6.314;2022-10-16T07:37:06;7.43;;;1.58;;
29934;SDS011;19905;53.370;-6.314;2022-10-16T07:39:42;7.97;;;1.17;;
29934;SDS011;19905;53.370;-6.314;2022-10-16T07:42:11;14.60;;;1.50;;
29934;SDS011;19905;53.370;-6.314;2022-10-16T07:44:41;7.32;;;1.30;;
29934;SDS011;19905;53.370;-6.314;2022-10-16T07:47:11;5.88;;;1.00;;
29934;SDS011;19905;53.370;-6.314;2022-10-16T07:49:41;7.03;;;1.50;;
29934;SDS011;19905;53.370;-6.314;2022-10-16T07:52:11;11.15;;;1.27;;
29934;SDS011;19905;53.370;-6.314;2022-10-16T07:54:42;12.05;;;1.13;;
29934;SDS011;19905;53.370;-6.314;2022-10-16T07:57:11;10.73;;;1.50;;
29934;SDS011;19905;53.370;-6.314;2022-10-16T07:59:47;12.75;;;1.42;;
29934;SDS011;19905;53.370;-6.314;2022-10-16T08:02:20;7.18;;;1.27;;
29934;SDS011;19905;53.370;-6.314;2022-10-16T08:04:49;9.57;;;1.50;;
29934;SDS011;19905;53.370;-6.314;2022-10-16T08:07:18;6.10;;;1.40;;
29934;SDS011;19905;53.370;-6.314;2022-10-16T08:09:50;4.93;;;1.30;;
29934;SDS011;19905;53.370;-6.314;2022-10-16T08:12:19;10.73;;;1.42;;
29934;SDS011;19905;53.370;-6.314;2022-10-16T08:14:50;10.10;;;1.33;;
29934;SDS011;19905;53.370;-6.314;2022-10-16T08:17:21;10.40;;;1.75;;
29934;SDS011;19905;53.370;-6.314;2022-10-16T08:19:50;6.28;;;1.30;;
29934;SDS011;19905;53.370;-6.314;2022-10-16T08:22:28;5.50;;;1.60;;
29934;SDS011;19905;53.370;-6.314;2022-10-16T08:24:59;10.95;;;1.50;;
29934;SDS011;19905;53.370;-6.314;2022-10-16T08:27:30;4.50;;;1.20;;
29934;SDS011;19905;53.370;-6.314;2022-10-16T08:30:01;7.53;;;1.52;;
29934;SDS011;19905;53.370;-6.314;2022-10-16T08:32:30;7.38;;;1.30;;
29934;SDS011;19905;53.370;-6.314;2022-10-16T08:35:02;4.50;;;1.23;;
29934;SDS011;19905;53.370;-6.314;2022-10-16T08:37:31;8.70;;;1.30;;
29934;SDS011;19905;53.370;-6.314;2022-10-16T08:40:03;5.60;;;1.25;;
29934;SDS011;19905;53.370;-6.314;2022-10-16T08:42:39;5.72;;;1.40;;
29934;SDS011;19905;53.370;-6.314;2022-10-16T08:45:21;7.03;;;1.25;;
29934;SDS011;19905;53.370;-6.314;2022-10-16T08:48:08;9.05;;;1.42;;
29934;SDS011;19905;53.370;-6.314;2022-10-16T08:50:43;9.90;;;1.65;;
29934;SDS011;19905;53.370;-6.314;2022-10-16T08:53:15;9.82;;;1.73;;
29934;SDS011;19905;53.370;-6.314;2022-10-16T08:55:51;12.60;;;3.10;;
29934;SDS011;19905;53.370;-6.314;2022-10-16T08:58:23;13.82;;;2.13;;
29934;SDS011;19905;53.370;-6.314;2022-10-16T09:00:58;8.80;;;1.80;;
29934;SDS011;19905;53.370;-6.314;2022-10-16T09:03:33;8.20;;;1.80;;
29934;SDS011;19905;53.370;-6.314;2022-10-16T09:06:26;12.05;;;2.17;;
29934;SDS011;19905;53.370;-6.314;2022-10-16T09:09:09;12.20;;;3.17;;
29934;SDS011;19905;53.370;-6.314;2022-10-16T09:12:01;18.48;;;3.15;;
29934;SDS011;19905;53.370;-6.314;2022-10-16T09:14:45;9.85;;;1.88;;
29934;SDS011;19905;53.370;-6.314;2022-10-16T09:17:34;7.15;;;1.70;;
29934;SDS011;19905;53.370;-6.314;2022-10-16T09:20:11;10.32;;;1.75;;
29934;SDS011;19905;53.370;-6.314;2022-10-16T09:23:13;11.40;;;2.97;;
29934;SDS011;19905;53.370;-6.314;2022-10-16T09:25:46;16.52;;;2.83;;
29934;SDS011;19905;53.370;-6.314;2022-10-16T09:28:19;10.38;;;2.40;;
29934;SDS011;19905;53.370;-6.314;2022-10-16T09:30:48;8.63;;;2.20;;
29934;SDS011;19905;53.370;-6.314;2022-10-16T09:33:20;6.82;;;2.10;;
29934;SDS011;19905;53.370;-6.314;2022-10-16T09:35:53;13.35;;;2.22;;
29934;SDS011;19905;53.370;-6.314;2022-10-16T09:40:58;9.85;;;1.75;;
29934;SDS011;19905;53.370;-6.314;2022-10-16T09:43:38;9.45;;;1.90;;
29934;SDS011;19905;53.370;-6.314;2022-10-16T09:46:21;11.18;;;1.95;;
29934;SDS011;19905;53.370;-6.314;2022-10-16T09:48:54;14.10;;;3.05;;
29934;SDS011;19905;53.370;-6.314;2022-10-16T09:51:25;14.02;;;3.55;;
29934;SDS011;19905;53.370;-6.314;2022-10-16T09:53:57;13.77;;;2.88;;
29934;SDS011;19905;53.370;-6.314;2022-10-16T09:56:30;14.38;;;2.80;;
29934;SDS011;19905;53.370;-6.314;2022-10-16T09:59:02;9.45;;;2.00;;
29934;SDS011;19905;53.370;-6.314;2022-10-16T10:01:39;10.02;;;2.05;;
29934;SDS011;19905;53.370;-6.314;2022-10-16T10:04:11;10.65;;;1.58;;
29934;SDS011;19905;53.370;-6.314;2022-10-16T10:06:41;13.75;;;2.10;;
29934;SDS011;19905;53.370;-6.314;2022-10-16T10:09:19;8.52;;;2.17;;
29934;SDS011;19905;53.370;-6.314;2022-10-16T10:11:51;9.55;;;2.35;;
29934;SDS011;19905;53.370;-6.314;2022-10-16T10:14:27;10.55;;;2.10;;
29934;SDS011;19905;53.370;-6.314;2022-10-16T10:19:51;8.80;;;2.28;;
29934;SDS011;19905;53.370;-6.314;2022-10-16T10:22:23;9.00;;;2.40;;
29934;SDS011;19905;53.370;-6.314;2022-10-16T10:27:56;10.00;;;2.50;;
29934;SDS011;19905;53.370;-6.314;2022-10-16T10:30:46;12.20;;;2.40;;
29934;SDS011;19905;53.370;-6.314;2022-10-16T10:33:28;12.35;;;2.53;;
29934;SDS011;19905;53.370;-6.314;2022-10-16T10:36:08;12.20;;;2.45;;
29934;SDS011;19905;53.370;-6.314;2022-10-16T10:38:46;12.55;;;2.08;;
29934;SDS011;19905;53.370;-6.314;2022-10-16T10:44:25;13.80;;;2.50;;
29934;SDS011;19905;53.370;-6.314;2022-10-16T10:47:11;11.15;;;2.20;;
29934;SDS011;19905;53.370;-6.314;2022-10-16T10:49:54;11.50;;;2.58;;
29934;SDS011;19905;53.370;-6.314;2022-10-16T10:52:36;13.65;;;2.45;;
29934;SDS011;19905;53.370;-6.314;2022-10-16T10:55:20;8.75;;;2.30;;
29934;SDS011;19905;53.370;-6.314;2022-10-16T10:58:01;10.48;;;1.88;;
29934;SDS011;19905;53.370;-6.314;2022-10-16T11:00:42;10.23;;;1.95;;
29934;SDS011;19905;53.370;-6.314;2022-10-16T11:03:27;9.80;;;2.00;;
29934;SDS011;19905;53.370;-6.314;2022-10-16T11:06:11;15.20;;;2.38;;
29934;SDS011;19905;53.370;-6.314;2022-10-16T11:08:45;13.00;;;1.90;;
29934;SDS011;19905;53.370;-6.314;2022-10-16T11:11:23;9.23;;;2.00;;
29934;SDS011;19905;53.370;-6.314;2022-10-16T11:13:58;9.45;;;2.10;;
29934;SDS011;19905;53.370;-6.314;2022-10-16T11:16:34;12.93;;;1.80;;
29934;SDS011;19905;53.370;-6.314;2022-10-16T11:19:11;8.40;;;1.50;;
29934;SDS011;19905;53.370;-6.314;2022-10-16T11:21:44;7.88;;;1.50;;
29934;SDS011;19905;53.370;-6.314;2022-10-16T11:24:19;8.00;;;1.75;;
29934;SDS011;19905;53.370;-6.314;2022-10-16T11:26:53;10.27;;;1.70;;
29934;SDS011;19905;53.370;-6.314;2022-10-16T11:29:24;9.60;;;1.85;;
29934;SDS011;19905;53.370;-6.314;2022-10-16T11:32:01;10.07;;;1.77;;
29934;SDS011;19905;53.370;-6.314;2022-10-16T11:34:38;10.55;;;2.22;;
29934;SDS011;19905;53.370;-6.314;2022-10-16T11:37:12;9.73;;;1.55;;
29934;SDS011;19905;53.370;-6.314;2022-10-16T11:39:45;8.05;;;1.70;;
29934;SDS011;19905;53.370;-6.314;2022-10-16T11:42:16;11.77;;;2.05;;
29934;SDS011;19905;53.370;-6.314;2022-10-16T11:44:50;10.30;;;1.98;;
29934;SDS011;19905;53.370;-6.314;2022-10-16T11:47:24;7.82;;;1.95;;
29934;SDS011;19905;53.370;-6.314;2022-10-16T11:50:24;10.63;;;1.80;;
29934;SDS011;19905;53.370;-6.314;2022-10-16T11:52:59;9.50;;;1.88;;
29934;SDS011;19905;53.370;-6.314;2022-10-16T11:55:32;11.32;;;1.70;;
29934;SDS011;19905;53.370;-6.314;2022-10-16T11:58:13;8.85;;;1.90;;
29934;SDS011;19905;53.370;-6.314;2022-10-16T12:00:52;8.70;;;1.65;;
29934;SDS011;19905;53.370;-6.314;2022-10-16T12:03:28;11.63;;;1.95;;
29934;SDS011;19905;53.370;-6.314;2022-10-16T12:06:13;11.77;;;1.70;;
29934;SDS011;19905;53.370;-6.314;2022-10-16T12:08:50;8.23;;;1.80;;
29934;SDS011;19905;53.370;-6.314;2022-10-16T12:11:22;10.18;;;1.88;;
29934;SDS011;19905;53.370;-6.314;2022-10-16T12:14:18;7.93;;;1.85;;
29934;SDS011;19905;53.370;-6.314;2022-10-16T12:16:51;11.15;;;1.80;;
29934;SDS011;19905;53.370;-6.314;2022-10-16T12:19:22;10.63;;;2.00;;
29934;SDS011;19905;53.370;-6.314;2022-10-16T12:21:56;10.90;;;2.00;;
29934;SDS011;19905;53.370;-6.314;2022-10-16T12:24:32;10.80;;;2.00;;
29934;SDS011;19905;53.370;-6.314;2022-10-16T12:27:05;8.40;;;2.20;;
29934;SDS011;19905;53.370;-6.314;2022-10-16T12:29:36;10.27;;;1.90;;
29934;SDS011;19905;53.370;-6.314;2022-10-16T12:32:19;13.48;;;1.80;;
29934;SDS011;19905;53.370;-6.314;2022-10-16T12:35:17;11.20;;;2.50;;
29934;SDS011;19905;53.370;-6.314;2022-10-16T12:37:51;15.80;;;2.20;;
29934;SDS011;19905;53.370;-6.314;2022-10-16T12:40:26;8.02;;;1.48;;
29934;SDS011;19905;53.370;-6.314;2022-10-16T12:42:59;12.40;;;1.73;;
29934;SDS011;19905;53.370;-6.314;2022-10-16T12:45:41;7.75;;;1.52;;
29934;SDS011;19905;53.370;-6.314;2022-10-16T12:48:22;9.38;;;1.42;;
29934;SDS011;19905;53.370;-6.314;2022-10-16T12:51:12;7.00;;;1.40;;
29934;SDS011;19905;53.370;-6.314;2022-10-16T12:54:02;8.57;;;1.73;;
29934;SDS011;19905;53.370;-6.314;2022-10-16T12:56:38;14.10;;;1.70;;
29934;SDS011;19905;53.370;-6.314;2022-10-16T12:59:16;7.53;;;1.63;;
29934;SDS011;19905;53.370;-6.314;2022-10-16T13:02:04;10.10;;;1.70;;
29934;SDS011;19905;53.370;-6.314;2022-10-16T13:05:09;10.10;;;1.88;;
29934;SDS011;19905;53.370;-6.314;2022-10-16T13:07:59;7.88;;;2.10;;
29934;SDS011;19905;53.370;-6.314;2022-10-16T13:10:45;10.90;;;2.20;;
29934;SDS011;19905;53.370;-6.314;2022-10-16T13:16:21;10.60;;;2.05;;
29934;SDS011;19905;53.370;-6.314;2022-10-16T13:19:04;9.52;;;2.08;;
29934;SDS011;19905;53.370;-6.314;2022-10-16T13:21:47;9.75;;;2.47;;
29934;SDS011;19905;53.370;-6.314;2022-10-16T13:24:27;8.85;;;1.85;;
29934;SDS011;19905;53.370;-6.314;2022-10-16T13:27:13;8.02;;;1.70;;
29934;SDS011;19905;53.370;-6.314;2022-10-16T13:32:43;9.98;;;2.05;;
29934;SDS011;19905;53.370;-6.314;2022-10-16T13:43:53;6.28;;;1.88;;
29934;SDS011;19905;53.370;-6.314;2022-10-16T13:46:24;13.20;;;2.30;;
29934;SDS011;19905;53.370;-6.314;2022-10-16T13:48:59;7.05;;;2.10;;
29934;SDS011;19905;53.370;-6.314;2022-10-16T13:51:31;7.82;;;2.08;;
29934;SDS011;19905;53.370;-6.314;2022-10-16T13:56:33;12.90;;;2.15;;
29934;SDS011;19905;53.370;-6.314;2022-10-16T13:59:06;8.30;;;2.22;;
29934;SDS011;19905;53.370;-6.314;2022-10-16T14:04:44;7.20;;;2.25;;
29934;SDS011;19905;53.370;-6.314;2022-10-16T14:07:23;8.00;;;2.20;;
29934;SDS011;19905;53.370;-6.314;2022-10-16T14:09:55;12.50;;;2.45;;
29934;SDS011;19905;53.370;-6.314;2022-10-16T14:12:35;14.85;;;2.80;;
29934;SDS011;19905;53.370;-6.314;2022-10-16T14:15:15;11.85;;;3.25;;
29934;SDS011;19905;53.370;-6.314;2022-10-16T14:17:47;9.95;;;3.00;;
29934;SDS011;19905;53.370;-6.314;2022-10-16T14:20:19;10.57;;;3.03;;
29934;SDS011;19905;53.370;-6.314;2022-10-16T14:22:58;14.52;;;3.00;;
29934;SDS011;19905;53.370;-6.314;2022-10-16T14:28:42;11.98;;;3.08;;
29934;SDS011;19905;53.370;-6.314;2022-10-16T14:31:25;8.52;;;2.70;;
29934;SDS011;19905;53.370;-6.314;2022-10-16T14:33:56;9.82;;;2.83;;
29934;SDS011;19905;53.370;-6.314;2022-10-16T14:36:33;13.05;;;2.67;;
29934;SDS011;19905;53.370;-6.314;2022-10-16T14:39:03;7.68;;;2.53;;
29934;SDS011;19905;53.370;-6.314;2022-10-16T14:41:41;8.77;;;2.47;;
29934;SDS011;19905;53.370;-6.314;2022-10-16T14:44:14;9.88;;;2.35;;
29934;SDS011;19905;53.370;-6.314;2022-10-16T14:46:49;9.32;;;2.35;;
29934;SDS011;19905;53.370;-6.314;2022-10-16T14:49:36;9.40;;;2.70;;
29934;SDS011;19905;53.370;-6.314;2022-10-16T14:52:15;8.35;;;2.20;;
29934;SDS011;19905;53.370;-6.314;2022-10-16T14:54:48;9.88;;;2.03;;
29934;SDS011;19905;53.370;-6.314;2022-10-16T14:57:19;14.10;;;2.70;;
29934;SDS011;19905;53.370;-6.314;2022-10-16T15:08:43;9.63;;;2.70;;
29934;SDS011;19905;53.370;-6.314;2022-10-16T15:11:22;13.57;;;2.65;;
29934;SDS011;19905;53.370;-6.314;2022-10-16T15:13:51;14.35;;;2.95;;
29934;SDS011;19905;53.370;-6.314;2022-10-16T15:19:25;12.90;;;2.45;;
29934;SDS011;19905;53.370;-6.314;2022-10-16T15:24:30;14.82;;;2.50;;
29934;SDS011;19905;53.370;-6.314;2022-10-16T15:26:58;12.05;;;2.38;;
29934;SDS011;19905;53.370;-6.314;2022-10-16T15:29:27;17.98;;;2.33;;
29934;SDS011;19905;53.370;-6.314;2022-10-16T15:31:56;8.88;;;2.00;;
29934;SDS011;19905;53.370;-6.314;2022-10-16T15:34:24;12.80;;;2.03;;
29934;SDS011;19905;53.370;-6.314;2022-10-16T15:36:53;19.48;;;2.33;;
29934;SDS011;19905;53.370;-6.314;2022-10-16T15:39:24;17.67;;;2.35;;
29934;SDS011;19905;53.370;-6.314;2022-10-16T15:41:53;10.90;;;1.98;;
29934;SDS011;19905;53.370;-6.314;2022-10-16T15:44:22;16.33;;;2.00;;
29934;SDS011;19905;53.370;-6.314;2022-10-16T15:46:54;11.10;;;1.88;;
29934;SDS011;19905;53.370;-6.314;2022-10-16T15:49:35;13.27;;;2.00;;
29934;SDS011;19905;53.370;-6.314;2022-10-16T15:52:04;16.20;;;1.92;;
29934;SDS011;19905;53.370;-6.314;2022-10-16T15:54:34;12.93;;;2.40;;
29934;SDS011;19905;53.370;-6.314;2022-10-16T15:57:02;19.95;;;2.30;;
29934;SDS011;19905;53.370;-6.314;2022-10-16T15:59:31;8.88;;;1.92;;
29934;SDS011;19905;53.370;-6.314;2022-10-16T16:02:00;16.70;;;2.40;;
29934;SDS011;19905;53.370;-6.314;2022-10-16T16:04:29;9.57;;;2.22;;
29934;SDS011;19905;53.370;-6.314;2022-10-16T16:07:10;16.95;;;2.42;;
29934;SDS011;19905;53.370;-6.314;2022-10-16T16:09:40;10.50;;;2.13;;
29934;SDS011;19905;53.370;-6.314;2022-10-16T16:12:10;16.50;;;2.20;;
29934;SDS011;19905;53.370;-6.314;2022-10-16T16:14:40;15.00;;;2.88;;
29934;SDS011;19905;53.370;-6.314;2022-10-16T16:17:18;11.35;;;2.60;;
29934;SDS011;19905;53.370;-6.314;2022-10-16T16:19:47;13.55;;;2.58;;
29934;SDS011;19905;53.370;-6.314;2022-10-16T16:22:15;15.63;;;2.72;;